Flight Track Log - Related Links

Times and Time Zones

All times are in EDT time to prevent confusion due to time zone crossing. See the AWE1525 flight status page for this flight to view local times or setup timezone preferences in your user account.

Time Position Orientation Groundspeed Altitude Reporting Facility
EDT Latitude Longitude Course Direction KTS MPH feet Rate Location/Type
Thu 06:59:39 PM 43.1075 -76.1375 204° Southwest 151 174 1,500  Level Boston Center
Thu 07:00:46 PM 43.1069 -76.2144 269° West 193 222 4,400 2,764 Climbing Boston Center
Thu 07:02:00 PM 42.8384 -76.4155 224° Southwest  Level FlightAware Approximate
Thu 07:02:37 PM 43.0386 -76.3144 227° Southwest 236 272 9,700  Level New York Center
Thu 07:03:00 PM 42.7466 -76.5135 213° Southwest  Level FlightAware Approximate
Thu 07:03:38 PM 42.9653 -76.3703 209° Southwest 275 316 10,100  Level New York Center
Thu 07:04:00 PM 42.6486 -76.6009 206° Southwest  Level FlightAware Approximate
Thu 07:04:38 PM 42.8853 -76.4311 209° Southwest 319 367 12,700  Level New York Center
Thu 07:05:00 PM 42.5521 -76.6621 204° Southwest  Level FlightAware Approximate
Thu 07:05:37 PM 42.8011 -76.4944 209° Southwest 340 391 15,700  Level New York Center
Thu 07:06:38 PM 42.7108 -76.5600 208° Southwest 361 415 18,100 2,529 Climbing New York Center
Thu 07:07:38 PM 42.6178 -76.6333 210° Southwest 374 430 20,800 2,400 Climbing New York Center
Thu 07:08:38 PM 42.5225 -76.7064 209° Southwest 384 442 22,900 1,700 Climbing New York Center
Thu 07:09:38 PM 42.4275 -76.7764 209° Southwest 396 456 24,200 1,537 Climbing New York Center
Thu 07:10:39 PM 42.3236 -76.8511 208° Southwest 408 470 26,000 1,412 Climbing New York Center
Thu 07:11:37 PM 42.2219 -76.9283 209° Southwest 418 481 27,000 508 Climbing New York Center
Thu 07:12:37 PM 42.1222 -77.0031 209° Southwest 418 481 27,000 793 Level New York Center
Thu 07:13:38 PM 42.0219 -77.0858 212° Southwest 423 487 28,600 1,686 Climbing New York Center
Thu 07:14:38 PM 41.9197 -77.1708 212° Southwest 428 493 30,400 1,587 Climbing New York Center
Thu 07:15:39 PM 41.8150 -77.2581 212° Southwest 433 498 31,800 1,462 Climbing New York Center
Thu 07:16:37 PM 41.7122 -77.3456 212° Southwest 438 504 33,300 1,709 Climbing New York Center
Thu 07:18:10 PM 41.5428 -77.4814 211° Southwest 424 488 36,100 1,569 Climbing Cleveland Center
Thu 07:19:10 PM 41.4408 -77.5664 212° Southwest 424 488 37,300 950 Climbing Cleveland Center
Thu 07:20:10 PM 41.3367 -77.6489 211° Southwest 429 494 38,000 350 Climbing Cleveland Center
Thu 07:21:10 PM 41.2367 -77.7333 212° Southwest 429 494 38,000  Level Cleveland Center
Thu 07:22:10 PM 41.1322 -77.8153 211° Southwest 429 494 38,000  Level Cleveland Center
Thu 07:23:10 PM 41.0300 -77.8967 211° Southwest 429 494 38,000 -50 Level Cleveland Center
Thu 07:24:10 PM 40.9319 -77.9858 214° Southwest 434 499 37,900  Descending Cleveland Center
Thu 07:25:10 PM 40.8469 -78.0961 224° Southwest 434 499 38,000 50 Climbing Cleveland Center
Thu 07:26:10 PM 40.7722 -78.2114 229° Southwest 423 487 38,000  Level Cleveland Center
Thu 07:27:10 PM 40.6975 -78.3319 231° Southwest 418 481 38,000  Level Cleveland Center
Thu 07:28:10 PM 40.6206 -78.4494 229° Southwest 424 488 38,000  Level Cleveland Center
Thu 07:29:10 PM 40.5475 -78.5664 231° Southwest 424 488 38,000  Level Cleveland Center
Thu 07:30:10 PM 40.4703 -78.6836 229° Southwest 424 488 38,000  Level Cleveland Center
Thu 07:31:10 PM 40.3931 -78.8003 229° Southwest 424 488 38,000  Level Cleveland Center
Thu 07:32:10 PM 40.3156 -78.9167 229° Southwest 424 488 38,000  Level Cleveland Center
Thu 07:33:10 PM 40.2400 -79.0328 230° Southwest 429 494 38,000  Level Cleveland Center
Thu 07:34:10 PM 40.1625 -79.1486 229° Southwest 429 494 38,000  Level Cleveland Center
Thu 07:35:10 PM 40.0867 -79.2669 230° Southwest 429 494 38,000 50 Level Cleveland Center
Thu 07:36:10 PM 40.0192 -79.3714 230° Southwest 429 494 38,100  Climbing Cleveland Center
Thu 07:37:10 PM 39.9411 -79.4864 229° Southwest 429 494 38,000 -50 Descending Cleveland Center
Thu 07:38:10 PM 39.8567 -79.6122 229° Southwest 429 494 38,000  Level Cleveland Center
Thu 07:39:10 PM 39.7806 -79.7242 229° Southwest 429 494 38,000  Level Cleveland Center
Thu 07:41:37 PM 39.6081 -79.9758 228° Southwest 411 473 38,000  Level Indianapolis Center
Thu 07:42:39 PM 39.5175 -80.1072 228° Southwest 407 468 38,000  Level Indianapolis Center
Thu 07:43:40 PM 39.4397 -80.2183 228° Southwest 414 476 38,000  Level Indianapolis Center
Thu 07:44:42 PM 39.3606 -80.3281 227° Southwest 416 479 38,000  Level Indianapolis Center
Thu 07:45:44 PM 39.2806 -80.4406 227° Southwest 424 488 38,000  Level Indianapolis Center
Thu 07:46:46 PM 39.2014 -80.5525 228° Southwest 422 486 38,000  Level Indianapolis Center
Thu 07:47:47 PM 39.1208 -80.6644 227° Southwest 425 489 38,000  Level Indianapolis Center
Thu 07:48:49 PM 39.0403 -80.7767 227° Southwest 425 489 38,000  Level Indianapolis Center
Thu 07:49:51 PM 38.9600 -80.8919 228° Southwest 431 496 38,000  Level Indianapolis Center
Thu 07:50:53 PM 38.8658 -81.0283 228° Southwest 425 489 38,000  Level Indianapolis Center
Thu 07:51:54 PM 38.7875 -81.1417 228° Southwest 423 487 38,000  Level Indianapolis Center
Thu 07:52:56 PM 38.7086 -81.2553 228° Southwest 423 487 38,000  Level Indianapolis Center
Thu 07:53:58 PM 38.6275 -81.3700 228° Southwest 426 490 38,000  Level Indianapolis Center
Thu 07:55:00 PM 38.5464 -81.4889 229° Southwest 430 495 38,000  Level Indianapolis Center
Thu 07:56:01 PM 38.4661 -81.6044 228° Southwest 430 495 38,000  Level Indianapolis Center
Thu 07:57:03 PM 38.3839 -81.7153 227° Southwest 432 497 38,000 -242 Level Indianapolis Center
Thu 07:58:05 PM 38.2767 -81.7836 207° Southwest 439 505 37,500 -732 Descending Indianapolis Center
Thu 07:59:06 PM 38.1561 -81.8064 188° South 437 503 36,500 -732 Descending Indianapolis Center
Thu 08:00:08 PM 38.0356 -81.8306 189° South 438 504 36,000 -242 Descending Indianapolis Center
Thu 08:01:10 PM 37.8928 -81.8581 189° South 434 499 36,000 -244 Level Indianapolis Center
Thu 08:02:11 PM 37.7739 -81.8800 188° South 437 503 35,500 -732 Descending Indianapolis Center
Thu 08:03:13 PM 37.6536 -81.9044 189° South 436 502 34,500 -732 Descending Indianapolis Center
Thu 08:04:14 PM 37.5397 -81.9508 198° South 429 494 34,000 -293 Descending Indianapolis Center
Thu 08:05:16 PM 37.4264 -81.9975 198° South 427 491 33,900 -1,500 Descending Indianapolis Center
Thu 08:06:18 PM 37.3117 -82.0425 197° South 428 493 30,900 -2,390 Descending Indianapolis Center
Thu 08:07:19 PM 37.1797 -82.0950 198° South 423 487 29,000 -927 Descending Indianapolis Center
Thu 08:08:21 PM 37.0669 -82.1428 199° South 424 488 29,000  Level Indianapolis Center
Thu 08:09:23 PM 36.9486 -82.1922 198° South 440 506 29,000 -390 Level Indianapolis Center
Thu 08:10:24 PM 36.8311 -82.2414 199° South 441 507 28,200 -976 Descending Indianapolis Center
Thu 08:11:26 PM 36.7072 -82.2556 185° South 451 519 27,000 -1,113 Descending Indianapolis Center
Thu 08:12:28 PM 36.5917 -82.2158 165° South 431 496 25,900 -1,588 Descending Indianapolis Center
Thu 08:13:08 PM 36.5200 -82.1942 166° South 420 483 24,300 -1,140 Descending Atlanta Center
Thu 08:14:08 PM 36.4131 -82.1631 167° South 399 459 24,000 -150 Descending Atlanta Center
Thu 08:15:08 PM 36.3042 -82.1347 168° South 378 435 24,000 -850 Level Atlanta Center
Thu 08:16:08 PM 36.2203 -82.1086 166° South 354 407 22,300 -2,000 Descending Atlanta Center
Thu 08:17:08 PM 36.1264 -82.0953 173° South 348 400 20,000 -2,200 Descending Atlanta Center
Thu 08:18:08 PM 36.0325 -82.1053 185° South 348 400 17,900 -1,600 Descending Atlanta Center
Thu 08:19:08 PM 35.9503 -82.0483 151° Southeast 300 345 16,800 -1,050 Descending Atlanta Center
Thu 08:20:08 PM 35.8947 -81.9650 129° Southeast 313 360 15,800 -1,000 Descending Atlanta Center
Thu 08:21:08 PM 35.8350 -81.8844 132° Southeast 313 360 14,800 -1,034 Descending Atlanta Center
Thu 08:22:04 PM 35.7794 -81.8169 135° Southeast 301 346 13,800 -1,086 Descending Atlanta Center
Thu 08:22:53 PM 35.7325 -81.7517 132° Southeast 297 342 12,900 -1,091 Descending Atlanta Center
Thu 08:23:54 PM 35.6767 -81.6767 132° Southeast 298 343 11,800 -885 Descending Atlanta Center
Thu 08:24:55 PM 35.6189 -81.6042 134° Southeast 300 345 11,100 -466 Descending Atlanta Center
Thu 08:25:50 PM 35.5675 -81.5342 132° Southeast 302 348 10,900 -992 Descending Atlanta Center
Thu 08:27:08 PM 35.5317 -81.4128 110° East 285 328 8,900 -1,475 Descending Atlanta Center
Thu 08:27:52 PM 35.5197 -81.3494 103° East 279 321 7,900 -1,029 Descending Atlanta Center
Thu 08:28:53 PM 35.4989 -81.2506 104° East 275 316 7,100 -828 Descending Atlanta Center
Thu 08:29:48 PM 35.4825 -81.1719 104° East 273 314 6,300 -1,345 Descending Atlanta Center
Thu 08:30:49 PM 35.4594 -81.0786 107° East 266 306 4,500 -1,082 Descending Atlanta Center
Thu 08:31:50 PM 35.4058 -81.0269 142° Southeast 235 270 4,100 -634 Descending Atlanta Center
Thu 08:32:52 PM 35.3569 -80.9881 147° Southeast 205 236 3,200 -871 Descending Atlanta Center

Login

Don't have an account? Register now (free) for customized features, flight alerts, and more!